createdAt,value
2022-12-08T00:01:12.644Z,16.70
2022-12-08T00:03:39.435Z,15.17
2022-12-08T00:06:25.926Z,15.43
2022-12-08T00:09:10.832Z,14.47
2022-12-08T00:11:37.369Z,15.23
2022-12-08T00:14:03.735Z,15.73
2022-12-08T00:16:30.109Z,15.00
2022-12-08T00:18:56.493Z,16.77
2022-12-08T00:21:22.818Z,16.70
2022-12-08T00:23:55.070Z,17.73
2022-12-08T00:26:21.901Z,16.07
2022-12-08T00:28:48.464Z,15.00
2022-12-08T00:31:17.644Z,16.07
2022-12-08T00:33:44.032Z,14.83
2022-12-08T00:36:13.231Z,16.73
2022-12-08T00:38:40.009Z,16.33
2022-12-08T00:41:14.926Z,15.43
2022-12-08T00:43:42.126Z,14.53
2022-12-08T00:46:08.600Z,14.53
2022-12-08T00:48:35.254Z,14.87
2022-12-08T00:51:01.830Z,14.70
2022-12-08T00:53:28.186Z,15.70
2022-12-08T00:55:54.533Z,15.10
2022-12-08T00:58:20.842Z,14.93
2022-12-08T01:00:47.258Z,15.30
2022-12-08T01:03:13.690Z,15.47
2022-12-08T01:05:40.046Z,15.90
2022-12-08T01:08:07.909Z,15.07
2022-12-08T01:10:39.424Z,13.90
2022-12-08T01:13:06.154Z,13.23
2022-12-08T01:15:32.463Z,13.47
2022-12-08T01:17:59.014Z,14.83
2022-12-08T01:20:25.389Z,14.03
2022-12-08T01:22:51.943Z,14.90
2022-12-08T01:25:18.445Z,14.00
2022-12-08T01:27:44.978Z,15.10
2022-12-08T01:30:13.145Z,12.67
2022-12-08T01:32:39.500Z,14.47
2022-12-08T01:35:05.922Z,13.90
2022-12-08T01:37:32.227Z,15.43
2022-12-08T01:39:58.748Z,14.90
2022-12-08T01:42:27.814Z,14.47
2022-12-08T01:45:06.805Z,15.00
2022-12-08T01:47:46.165Z,13.93
2022-12-08T01:50:15.912Z,13.73
2022-12-08T01:53:04.331Z,13.93
2022-12-08T01:55:49.204Z,13.90
2022-12-08T01:58:26.617Z,14.30
2022-12-08T02:00:53.115Z,12.23
2022-12-08T02:03:28.060Z,14.20
2022-12-08T02:05:54.721Z,13.80
2022-12-08T02:08:22.754Z,12.97
2022-12-08T02:10:52.234Z,14.10
2022-12-08T02:13:21.411Z,13.47
2022-12-08T02:16:01.540Z,15.00
2022-12-08T02:19:08.025Z,14.50
2022-12-08T02:21:55.722Z,14.33
2022-12-08T02:24:38.877Z,14.70
2022-12-08T02:27:25.889Z,14.30
2022-12-08T02:30:23.781Z,14.80
2022-12-08T02:33:05.318Z,13.47
2022-12-08T02:35:43.995Z,13.73
2022-12-08T02:38:19.437Z,12.37
2022-12-08T02:41:01.047Z,13.63
2022-12-08T02:43:50.595Z,12.80
2022-12-08T02:46:31.107Z,13.87
2022-12-08T02:48:58.984Z,12.90
2022-12-08T02:51:25.553Z,13.00
2022-12-08T02:53:52.513Z,12.30
2022-12-08T02:56:43.087Z,12.10
2022-12-08T02:59:28.504Z,12.87
2022-12-08T03:02:07.130Z,11.73
2022-12-08T03:04:44.654Z,13.00
2022-12-08T03:07:21.967Z,12.43
2022-12-08T03:09:56.415Z,12.00
2022-12-08T03:12:34.950Z,11.90
2022-12-08T03:15:09.366Z,13.83
2022-12-08T03:17:38.369Z,13.10
2022-12-08T03:20:09.624Z,13.20
2022-12-08T03:22:38.530Z,13.50
2022-12-08T03:25:05.798Z,12.50
2022-12-08T03:27:32.645Z,11.40
2022-12-08T03:30:00.729Z,12.80
2022-12-08T03:32:39.214Z,13.50
2022-12-08T03:35:09.394Z,14.90
2022-12-08T03:37:37.830Z,12.93
2022-12-08T03:40:06.679Z,14.87
2022-12-08T03:42:33.239Z,12.87
2022-12-08T03:44:59.700Z,12.30
2022-12-08T03:47:26.358Z,12.73
2022-12-08T03:49:52.663Z,13.20
2022-12-08T03:52:18.986Z,13.53
2022-12-08T03:54:45.325Z,13.77
2022-12-08T03:57:11.720Z,12.90
2022-12-08T03:59:38.059Z,12.20
2022-12-08T04:02:04.399Z,13.70
2022-12-08T04:04:31.098Z,13.30
2022-12-08T04:06:57.450Z,14.07
2022-12-08T04:09:23.813Z,12.83
2022-12-08T04:11:50.162Z,12.40
2022-12-08T04:14:16.587Z,12.60
2022-12-08T04:16:42.936Z,12.90
2022-12-08T04:19:09.317Z,14.40
2022-12-08T04:21:35.637Z,13.27
2022-12-08T04:24:02.436Z,13.03
2022-12-08T04:26:29.008Z,12.77
2022-12-08T04:28:55.338Z,13.20
2022-12-08T04:31:21.752Z,12.30
2022-12-08T04:33:48.594Z,13.50
2022-12-08T04:36:15.163Z,14.17
2022-12-08T04:38:41.486Z,13.23
2022-12-08T04:41:07.912Z,12.40
2022-12-08T04:43:35.366Z,12.67
2022-12-08T04:46:01.701Z,12.43
2022-12-08T04:48:28.114Z,12.40
2022-12-08T04:50:54.465Z,11.40
2022-12-08T04:53:21.239Z,11.47
2022-12-08T04:55:49.512Z,12.77
2022-12-08T04:58:19.017Z,11.53
2022-12-08T05:00:46.835Z,10.47
2022-12-08T05:03:14.520Z,12.57
2022-12-08T05:05:41.959Z,11.60
2022-12-08T05:08:09.626Z,11.83
2022-12-08T05:10:36.366Z,12.83
2022-12-08T05:13:02.790Z,11.20
2022-12-08T05:15:29.150Z,13.03
2022-12-08T05:17:55.503Z,12.80
2022-12-08T05:20:21.986Z,12.67
2022-12-08T05:22:48.349Z,11.73
2022-12-08T05:25:14.967Z,11.87
2022-12-08T05:27:41.937Z,12.27
2022-12-08T05:30:08.431Z,12.07
2022-12-08T05:32:34.808Z,10.77
2022-12-08T05:35:01.140Z,12.47
2022-12-08T05:37:27.472Z,12.07
2022-12-08T05:39:53.781Z,11.70
2022-12-08T05:42:24.618Z,13.17
2022-12-08T05:44:51.462Z,12.60
2022-12-08T05:47:17.805Z,12.40
2022-12-08T05:49:44.837Z,12.27
2022-12-08T05:52:11.197Z,12.37
2022-12-08T05:54:38.032Z,13.63
2022-12-08T05:57:04.445Z,12.93
2022-12-08T05:59:30.753Z,11.83
2022-12-08T06:01:57.150Z,12.27
2022-12-08T06:04:23.515Z,12.67
2022-12-08T06:06:49.831Z,12.70
2022-12-08T06:09:16.345Z,13.93
2022-12-08T06:11:42.845Z,12.87
2022-12-08T06:14:14.441Z,13.43
2022-12-08T06:16:40.974Z,13.57
2022-12-08T06:19:07.463Z,14.17
2022-12-08T06:21:34.061Z,13.83
2022-12-08T06:24:00.396Z,13.50
2022-12-08T06:26:26.817Z,13.93
2022-12-08T06:28:53.164Z,12.97
2022-12-08T06:31:25.690Z,13.77
2022-12-08T06:33:53.550Z,14.80
2022-12-08T06:36:23.194Z,13.90
2022-12-08T06:38:49.641Z,12.47
2022-12-08T06:41:16.552Z,13.80
2022-12-08T06:43:43.214Z,12.23
2022-12-08T06:46:13.138Z,13.27
2022-12-08T06:48:39.749Z,13.10
2022-12-08T06:51:08.087Z,13.00
2022-12-08T06:53:34.613Z,13.40
2022-12-08T06:56:01.134Z,13.30
2022-12-08T06:58:27.466Z,13.40
2022-12-08T07:00:53.989Z,13.13
2022-12-08T07:03:20.520Z,13.30
2022-12-08T07:05:47.073Z,13.30
2022-12-08T07:08:13.538Z,13.50
2022-12-08T07:10:39.958Z,14.73
2022-12-08T07:13:06.290Z,14.60
2022-12-08T07:15:32.615Z,12.87
2022-12-08T07:18:00.391Z,14.07
2022-12-08T07:20:27.137Z,14.60
2022-12-08T07:22:54.005Z,14.53
2022-12-08T07:25:20.459Z,13.20
2022-12-08T07:27:47.122Z,14.33
2022-12-08T07:30:14.142Z,13.33
2022-12-08T07:32:40.495Z,14.80
2022-12-08T07:35:08.231Z,13.03
2022-12-08T07:37:35.594Z,13.40
2022-12-08T07:40:02.336Z,14.57
2022-12-08T07:42:29.029Z,14.80
2022-12-08T07:44:55.564Z,14.93
2022-12-08T07:47:22.133Z,13.70
2022-12-08T07:49:48.445Z,15.93
2022-12-08T07:52:14.839Z,14.90
2022-12-08T07:54:41.154Z,14.20
2022-12-08T07:57:08.992Z,14.83
2022-12-08T07:59:35.620Z,13.93
2022-12-08T08:02:22.852Z,12.77
2022-12-08T08:04:51.573Z,13.00
2022-12-08T08:07:18.037Z,14.03
2022-12-08T08:09:45.532Z,14.33
2022-12-08T08:12:30.175Z,14.40
2022-12-08T08:14:57.386Z,14.80
2022-12-08T08:17:24.205Z,13.60
2022-12-08T08:19:50.632Z,14.10
2022-12-08T08:22:16.965Z,13.90
2022-12-08T08:24:45.165Z,15.50
2022-12-08T08:27:12.498Z,14.40
2022-12-08T08:29:38.862Z,14.63
2022-12-08T08:32:05.637Z,14.17
2022-12-08T08:34:34.293Z,14.60
2022-12-08T08:37:00.692Z,15.13
2022-12-08T08:39:27.142Z,14.00
2022-12-08T08:41:53.501Z,15.23
2022-12-08T08:44:19.841Z,16.07
2022-12-08T08:46:46.188Z,15.37
2022-12-08T08:49:13.073Z,14.80
2022-12-08T08:51:39.462Z,14.97
2022-12-08T08:54:05.843Z,14.83
2022-12-08T08:56:32.552Z,14.93
2022-12-08T08:58:59.010Z,14.37
2022-12-08T09:01:27.656Z,16.20
2022-12-08T09:03:55.420Z,16.70
2022-12-08T09:06:22.640Z,18.03
2022-12-08T09:08:50.057Z,17.13
2022-12-08T09:11:18.474Z,17.17
2022-12-08T09:13:48.380Z,16.80
2022-12-08T09:16:15.182Z,17.30
2022-12-08T09:18:41.905Z,15.20
2022-12-08T09:21:13.053Z,15.60
2022-12-08T09:23:39.421Z,16.13
2022-12-08T09:26:05.783Z,15.83
2022-12-08T09:28:32.779Z,18.13
2022-12-08T09:30:59.244Z,17.00
2022-12-08T09:33:25.658Z,17.87
2022-12-08T09:35:52.013Z,16.67
2022-12-08T09:38:18.558Z,17.97
2022-12-08T09:40:50.093Z,18.87
2022-12-08T09:43:40.896Z,17.70
2022-12-08T09:46:10.425Z,17.73
2022-12-08T09:48:44.511Z,17.80
2022-12-08T09:51:13.339Z,17.70
2022-12-08T09:53:48.251Z,19.47
2022-12-08T09:56:33.564Z,18.07
2022-12-08T09:59:03.858Z,18.87
2022-12-08T10:01:33.314Z,17.50
2022-12-08T10:04:01.008Z,19.63
2022-12-08T10:06:30.395Z,18.00
2022-12-08T10:09:38.052Z,17.53
2022-12-08T10:12:29.445Z,18.63
2022-12-08T10:15:17.915Z,17.30
2022-12-08T10:17:50.955Z,17.90
2022-12-08T10:20:26.155Z,18.50
2022-12-08T10:23:08.231Z,17.80
2022-12-08T10:26:00.881Z,17.87
2022-12-08T10:28:27.435Z,16.90
2022-12-08T10:30:53.903Z,17.30
2022-12-08T10:33:21.938Z,18.60
2022-12-08T10:35:58.342Z,17.57
2022-12-08T10:38:36.233Z,17.93
2022-12-08T10:41:11.694Z,19.50
2022-12-08T10:43:42.938Z,17.90
2022-12-08T10:46:19.587Z,18.03
2022-12-08T10:48:55.657Z,20.17
2022-12-08T10:51:25.204Z,18.83
2022-12-08T10:53:51.710Z,19.23
2022-12-08T10:56:18.109Z,17.40
2022-12-08T10:58:47.336Z,19.30
2022-12-08T11:01:26.328Z,19.00
2022-12-08T11:03:58.084Z,18.40
2022-12-08T11:06:30.400Z,19.00
2022-12-08T11:09:03.165Z,19.90
2022-12-08T11:11:50.222Z,20.80
2022-12-08T11:14:19.722Z,19.70
2022-12-08T11:16:46.328Z,20.17
2022-12-08T11:19:18.582Z,19.67
2022-12-08T11:21:46.089Z,18.00
2022-12-08T11:24:15.402Z,19.90
2022-12-08T11:26:50.074Z,17.43
2022-12-08T11:29:17.332Z,18.77
2022-12-08T11:31:49.861Z,16.37
2022-12-08T11:34:30.062Z,14.30
2022-12-08T11:36:57.367Z,15.23
2022-12-08T11:39:27.005Z,14.97
2022-12-08T11:41:56.420Z,16.60
2022-12-08T11:44:46.968Z,15.47
2022-12-08T11:47:25.362Z,13.67
2022-12-08T11:50:18.326Z,13.20
2022-12-08T11:52:49.884Z,14.30
2022-12-08T11:55:42.692Z,15.33
2022-12-08T11:58:38.759Z,15.57
2022-12-08T12:01:05.565Z,15.27
2022-12-08T12:03:43.693Z,15.20
2022-12-08T12:06:56.863Z,14.60
2022-12-08T12:09:29.218Z,13.43
2022-12-08T12:12:19.052Z,14.50
2022-12-08T12:15:10.061Z,13.30
2022-12-08T12:17:47.690Z,13.70
2022-12-08T12:20:20.964Z,12.10
2022-12-08T12:22:54.170Z,14.10
2022-12-08T12:25:23.704Z,13.13
2022-12-08T12:27:57.113Z,13.77
2022-12-08T12:30:26.499Z,13.90
2022-12-08T12:32:56.986Z,12.47
2022-12-08T12:35:28.956Z,11.83
2022-12-08T12:38:01.407Z,13.00
2022-12-08T12:40:34.017Z,13.30
2022-12-08T12:43:00.259Z,11.90
2022-12-08T12:45:31.924Z,13.50
2022-12-08T12:48:01.200Z,12.30
2022-12-08T12:50:33.880Z,11.77
2022-12-08T12:53:09.171Z,13.40
2022-12-08T12:55:53.865Z,12.37
2022-12-08T12:58:27.904Z,13.00
2022-12-08T13:01:19.948Z,11.87
2022-12-08T13:04:12.625Z,12.77
2022-12-08T13:06:46.766Z,13.03
2022-12-08T13:09:24.217Z,12.87
2022-12-08T13:11:54.763Z,10.13
2022-12-08T13:14:28.114Z,10.10
2022-12-08T13:16:57.483Z,9.70
2022-12-08T13:19:25.116Z,10.20
2022-12-08T13:21:51.464Z,10.67
2022-12-08T13:24:24.059Z,9.97
2022-12-08T13:27:10.994Z,10.27
2022-12-08T13:29:40.416Z,11.50
2022-12-08T13:32:09.678Z,9.03
2022-12-08T13:34:41.952Z,9.67
2022-12-08T13:37:11.327Z,10.53
2022-12-08T13:39:40.711Z,10.87
2022-12-08T13:42:19.102Z,10.10
2022-12-08T13:48:13.766Z,9.80
2022-12-08T13:53:00.054Z,9.90
2022-12-08T13:59:31.447Z,10.43
2022-12-08T14:02:04.310Z,9.43
2022-12-08T14:04:54.329Z,10.07
2022-12-08T14:07:18.457Z,9.60
2022-12-08T14:09:46.158Z,10.40
2022-12-08T14:12:20.517Z,11.47
2022-12-08T14:15:06.027Z,9.83
2022-12-08T14:17:33.479Z,9.40
2022-12-08T14:20:01.864Z,10.47
2022-12-08T14:22:37.348Z,10.50
2022-12-08T14:25:06.513Z,11.07
2022-12-08T14:27:37.171Z,11.30
2022-12-08T14:30:26.633Z,11.40
2022-12-08T14:32:58.766Z,11.50
2022-12-08T14:35:26.656Z,10.43
2022-12-08T14:37:57.166Z,11.40
2022-12-08T14:40:29.175Z,10.60
2022-12-08T14:43:07.546Z,10.87
2022-12-08T14:45:40.085Z,10.50
2022-12-08T14:48:31.418Z,11.20
2022-12-08T14:51:03.767Z,10.70
2022-12-08T14:53:56.284Z,10.07
2022-12-08T14:56:26.821Z,9.70
2022-12-08T14:59:07.941Z,10.00
2022-12-08T15:01:38.673Z,9.97
2022-12-08T15:04:17.692Z,9.67
2022-12-08T15:06:53.512Z,10.03
2022-12-08T15:09:34.165Z,10.40
2022-12-08T15:12:12.560Z,10.07
2022-12-08T15:14:53.811Z,9.67
2022-12-08T15:17:48.879Z,8.87
2022-12-08T15:20:35.852Z,8.90
2022-12-08T15:23:02.943Z,9.43
2022-12-08T15:25:32.468Z,9.30
2022-12-08T15:28:02.429Z,9.30
2022-12-08T15:30:29.638Z,11.07
2022-12-08T15:32:56.175Z,9.83
2022-12-08T15:35:22.687Z,10.70
2022-12-08T15:37:49.083Z,10.73
2022-12-08T15:40:18.813Z,10.50
2022-12-08T15:42:45.271Z,10.70
2022-12-08T15:45:15.941Z,10.93
2022-12-08T15:47:44.240Z,10.17
2022-12-08T15:50:17.074Z,11.37
2022-12-08T15:52:43.768Z,10.17
2022-12-08T15:55:18.434Z,11.07
2022-12-08T16:00:53.926Z,10.87
2022-12-08T16:09:32.996Z,11.73
2022-12-08T16:12:18.326Z,11.10
2022-12-08T16:17:32.065Z,12.23
2022-12-08T16:19:59.077Z,11.17
2022-12-08T16:25:20.210Z,10.40
2022-12-08T16:30:36.553Z,13.00
2022-12-08T16:33:02.877Z,13.83
2022-12-08T16:35:30.542Z,13.70
2022-12-08T16:37:57.434Z,13.60
2022-12-08T16:40:23.848Z,13.33
2022-12-08T16:42:50.528Z,12.43
2022-12-08T16:45:20.229Z,12.70
2022-12-08T16:47:49.050Z,11.00
2022-12-08T16:50:46.197Z,11.73
2022-12-08T16:53:13.038Z,11.33
2022-12-08T16:55:40.032Z,11.87
2022-12-08T16:58:06.796Z,11.73
2022-12-08T17:00:37.379Z,10.63
2022-12-08T17:03:10.779Z,10.60
2022-12-08T17:05:39.581Z,10.93
2022-12-08T17:08:05.944Z,11.90
2022-12-08T17:10:34.435Z,9.60
2022-12-08T17:13:02.145Z,11.80
2022-12-08T17:15:28.845Z,11.57
2022-12-08T17:17:55.229Z,10.70
2022-12-08T17:20:26.437Z,11.70
2022-12-08T17:22:58.937Z,12.30
2022-12-08T17:25:26.640Z,11.87
2022-12-08T17:27:53.130Z,11.60
2022-12-08T17:30:19.641Z,13.13
2022-12-08T17:32:45.986Z,12.70
2022-12-08T17:35:13.225Z,10.73
2022-12-08T17:37:39.570Z,12.83
2022-12-08T17:40:06.912Z,12.87
2022-12-08T17:42:33.540Z,11.37
2022-12-08T17:44:59.858Z,13.27
2022-12-08T17:47:26.185Z,12.27
2022-12-08T17:49:52.585Z,11.30
2022-12-08T17:52:18.963Z,11.70
2022-12-08T17:54:45.357Z,11.87
2022-12-08T17:57:11.695Z,12.10
2022-12-08T17:59:38.154Z,11.60
2022-12-08T18:02:04.652Z,10.33
2022-12-08T18:04:31.259Z,10.60
2022-12-08T18:07:00.107Z,10.67
2022-12-08T18:09:26.516Z,10.33
2022-12-08T18:11:52.943Z,10.60
2022-12-08T18:14:19.308Z,11.90
2022-12-08T18:16:46.903Z,10.50
2022-12-08T18:19:14.545Z,11.90
2022-12-08T18:21:41.546Z,12.07
2022-12-08T18:24:15.118Z,10.70
2022-12-08T18:26:41.690Z,11.30
2022-12-08T18:29:08.054Z,11.13
2022-12-08T18:31:34.387Z,11.20
2022-12-08T18:34:00.737Z,11.17
2022-12-08T18:36:27.076Z,12.00
2022-12-08T18:38:55.595Z,12.37
2022-12-08T18:41:25.566Z,11.50
2022-12-08T18:43:53.677Z,11.00
2022-12-08T18:46:20.291Z,12.37
2022-12-08T18:48:49.247Z,12.07
2022-12-08T18:51:21.235Z,12.60
2022-12-08T18:53:48.576Z,12.03
2022-12-08T18:56:34.495Z,12.50
2022-12-08T18:59:05.431Z,12.23
2022-12-08T19:01:33.953Z,11.53
2022-12-08T19:06:49.847Z,12.70
2022-12-08T19:09:17.331Z,12.97
2022-12-08T19:11:44.194Z,13.57
2022-12-08T19:14:10.977Z,12.43
2022-12-08T19:16:38.064Z,13.00
2022-12-08T19:19:05.013Z,13.43
2022-12-08T19:21:32.455Z,12.80
2022-12-08T19:23:59.855Z,13.67
2022-12-08T19:26:27.999Z,12.57
2022-12-08T19:28:54.687Z,13.80
2022-12-08T19:31:21.583Z,12.53
2022-12-08T19:33:47.987Z,12.83
2022-12-08T19:36:17.739Z,13.60
2022-12-08T19:39:02.786Z,14.53
2022-12-08T19:41:48.203Z,12.70
2022-12-08T19:44:52.862Z,13.70
2022-12-08T19:47:24.662Z,12.70
2022-12-08T19:49:52.087Z,16.80
2022-12-08T19:52:18.841Z,15.57
2022-12-08T19:54:45.231Z,19.50
2022-12-08T19:57:11.639Z,13.40
2022-12-08T19:59:39.276Z,12.13
2022-12-08T20:02:07.000Z,14.37
2022-12-08T20:04:33.406Z,14.40
2022-12-08T20:07:00.061Z,12.40
2022-12-08T20:09:26.499Z,13.73
2022-12-08T20:11:54.610Z,13.07
2022-12-08T20:14:22.940Z,12.00
2022-12-08T20:16:50.439Z,13.00
2022-12-08T20:19:17.581Z,13.33
2022-12-08T20:21:43.950Z,14.07
2022-12-08T20:24:10.418Z,13.67
2022-12-08T20:26:36.839Z,14.40
2022-12-08T20:29:03.283Z,13.23
2022-12-08T20:31:31.427Z,13.40
2022-12-08T20:33:57.842Z,13.40
2022-12-08T20:36:25.289Z,12.70
2022-12-08T20:38:53.087Z,14.83
2022-12-08T20:41:20.246Z,14.40
2022-12-08T20:43:47.864Z,12.70
2022-12-08T20:46:16.590Z,14.20
2022-12-08T20:48:44.164Z,12.97
2022-12-08T20:51:18.545Z,12.90
2022-12-08T20:53:45.670Z,14.97
2022-12-08T20:56:20.678Z,13.33
2022-12-08T20:58:47.730Z,14.30
2022-12-08T21:01:17.664Z,13.77
2022-12-08T21:03:45.216Z,14.07
2022-12-08T21:06:12.774Z,12.90
2022-12-08T21:08:40.427Z,12.43
2022-12-08T21:11:07.962Z,12.70
2022-12-08T21:13:34.635Z,12.73
2022-12-08T21:16:01.131Z,13.90
2022-12-08T21:18:27.682Z,13.27
2022-12-08T21:21:05.839Z,14.90
2022-12-08T21:23:33.681Z,13.33
2022-12-08T21:26:00.107Z,14.67
2022-12-08T21:28:44.738Z,13.70
2022-12-08T21:31:16.502Z,13.07
2022-12-08T21:33:50.788Z,13.57
2022-12-08T21:36:51.057Z,13.17
2022-12-08T21:39:17.622Z,14.10
2022-12-08T21:42:12.074Z,14.27
2022-12-08T21:44:38.981Z,12.93
2022-12-08T21:47:05.659Z,13.60
2022-12-08T21:49:40.101Z,13.67
2022-12-08T21:52:09.165Z,15.90
2022-12-08T21:54:35.925Z,13.63
2022-12-08T21:57:02.379Z,13.10
2022-12-08T21:59:28.789Z,13.53
2022-12-08T22:01:55.309Z,13.33
2022-12-08T22:04:22.431Z,14.67
2022-12-08T22:06:49.392Z,15.30
2022-12-08T22:09:15.981Z,13.83
2022-12-08T22:11:43.667Z,13.83
2022-12-08T22:14:14.400Z,15.03
2022-12-08T22:16:42.155Z,16.87
2022-12-08T22:19:08.758Z,17.37
2022-12-08T22:21:35.305Z,14.60
2022-12-08T22:24:01.805Z,14.00
2022-12-08T22:26:28.249Z,13.70
2022-12-08T22:28:54.674Z,14.37
2022-12-08T22:31:21.905Z,14.23
2022-12-08T22:33:49.488Z,14.23
2022-12-08T22:36:24.623Z,12.87
2022-12-08T22:38:52.077Z,12.87
2022-12-08T22:41:19.339Z,13.30
2022-12-08T22:43:46.838Z,14.33
2022-12-08T22:46:16.705Z,12.97
2022-12-08T22:48:43.787Z,14.23
2022-12-08T22:51:10.252Z,14.73
2022-12-08T22:53:37.139Z,14.60
2022-12-08T22:56:08.294Z,15.00
2022-12-08T22:58:35.339Z,14.50
2022-12-08T23:01:02.120Z,13.57
2022-12-08T23:03:28.758Z,13.13
2022-12-08T23:05:55.427Z,13.20
2022-12-08T23:08:25.173Z,14.23
2022-12-08T23:10:53.847Z,13.40
2022-12-08T23:13:21.220Z,12.80
2022-12-08T23:15:48.141Z,12.63
2022-12-08T23:18:18.765Z,13.73
2022-12-08T23:20:46.495Z,12.47
2022-12-08T23:23:13.851Z,13.20
2022-12-08T23:25:41.523Z,13.03
2022-12-08T23:28:08.379Z,12.23
2022-12-08T23:30:35.411Z,11.80
2022-12-08T23:33:02.262Z,12.47
2022-12-08T23:35:28.682Z,12.20
2022-12-08T23:37:55.037Z,12.87
2022-12-08T23:40:21.494Z,12.73
2022-12-08T23:42:48.433Z,12.27
2022-12-08T23:45:14.961Z,12.70
2022-12-08T23:47:41.448Z,10.77
2022-12-08T23:50:08.714Z,10.97
2022-12-08T23:52:35.369Z,11.30
2022-12-08T23:55:01.803Z,12.37
2022-12-08T23:57:28.627Z,12.80
2022-12-08T23:59:54.993Z,12.93
